createdAt,value
2019-03-11T00:00:23.302Z,99.90
2019-03-11T00:02:51.871Z,99.90
2019-03-11T00:05:20.451Z,99.90
2019-03-11T00:07:49.094Z,99.90
2019-03-11T00:10:17.742Z,99.90
2019-03-11T00:12:46.340Z,99.90
2019-03-11T00:15:15.085Z,99.90
2019-03-11T00:17:43.660Z,99.90
2019-03-11T00:20:12.409Z,99.90
2019-03-11T00:22:41.059Z,99.90
2019-03-11T00:25:09.764Z,99.90
2019-03-11T00:27:38.343Z,99.90
2019-03-11T00:30:12.550Z,99.90
2019-03-11T00:32:41.218Z,99.90
2019-03-11T00:35:09.930Z,99.90
2019-03-11T00:37:38.578Z,99.90
2019-03-11T00:40:12.683Z,99.90
2019-03-11T00:42:41.269Z,99.90
2019-03-11T00:45:14.634Z,99.90
2019-03-11T00:47:43.294Z,99.90
2019-03-11T00:50:12.909Z,99.90
2019-03-11T00:52:41.667Z,99.90
2019-03-11T00:55:11.670Z,99.90
2019-03-11T00:57:40.234Z,99.90
2019-03-11T01:00:23.990Z,99.90
2019-03-11T01:02:52.696Z,99.90
2019-03-11T01:05:21.270Z,99.90
2019-03-11T01:07:49.838Z,99.90
2019-03-11T01:10:18.410Z,99.90
2019-03-11T01:12:46.990Z,99.90
2019-03-11T01:15:15.846Z,99.90
2019-03-11T01:17:44.498Z,99.90
2019-03-11T01:20:13.709Z,99.90
2019-03-11T01:22:42.300Z,99.90
2019-03-11T01:25:12.256Z,99.90
2019-03-11T01:27:41.174Z,99.90
2019-03-11T01:30:12.682Z,99.90
2019-03-11T01:32:41.345Z,99.90
2019-03-11T01:35:10.567Z,99.90
2019-03-11T01:37:39.267Z,99.90
2019-03-11T01:40:19.179Z,99.90
2019-03-11T01:42:47.750Z,99.90
2019-03-11T01:45:17.670Z,99.90
2019-03-11T01:47:46.306Z,99.90
2019-03-11T01:50:15.622Z,99.90
2019-03-11T01:52:44.335Z,99.90
2019-03-11T01:55:13.962Z,99.90
2019-03-11T01:57:42.610Z,99.90
2019-03-11T02:00:20.303Z,99.90
2019-03-11T02:02:48.984Z,99.90
2019-03-11T02:05:17.581Z,99.90
2019-03-11T02:07:46.173Z,99.90
2019-03-11T02:10:19.142Z,99.90
2019-03-11T02:12:47.870Z,99.90
2019-03-11T02:15:19.947Z,99.90
2019-03-11T02:17:48.566Z,99.90
2019-03-11T02:20:18.280Z,99.90
2019-03-11T02:22:46.872Z,99.90
2019-03-11T02:25:16.182Z,99.90
2019-03-11T02:27:44.990Z,99.90
2019-03-11T02:30:17.659Z,99.90
2019-03-11T02:32:46.302Z,99.90
2019-03-11T02:35:26.894Z,99.90
2019-03-11T02:37:56.006Z,99.90
2019-03-11T02:40:24.857Z,99.90
2019-03-11T02:42:53.415Z,99.90
2019-03-11T02:45:22.128Z,99.90
2019-03-11T02:47:50.763Z,99.90
2019-03-11T02:50:19.331Z,99.90
2019-03-11T02:52:47.977Z,99.90
2019-03-11T02:55:16.567Z,99.90
2019-03-11T02:57:45.150Z,99.90
2019-03-11T03:00:19.250Z,99.90
2019-03-11T03:03:08.262Z,99.90
2019-03-11T03:05:41.204Z,99.90
2019-03-11T03:08:09.779Z,99.90
2019-03-11T03:10:38.347Z,99.90
2019-03-11T03:13:07.143Z,99.90
2019-03-11T03:15:35.847Z,99.90
2019-03-11T03:18:04.483Z,99.90
2019-03-11T03:20:33.134Z,99.90
2019-03-11T03:23:01.702Z,99.90
2019-03-11T03:25:34.415Z,99.90
2019-03-11T03:28:00.719Z,99.90
2019-03-11T03:30:29.535Z,99.90
2019-03-11T03:32:58.359Z,99.90
2019-03-11T03:35:27.070Z,99.90
2019-03-11T03:37:55.645Z,99.90
2019-03-11T03:40:24.281Z,99.90
2019-03-11T03:42:53.056Z,99.90
2019-03-11T03:45:26.899Z,99.90
2019-03-11T03:47:55.775Z,99.90
2019-03-11T03:50:26.375Z,99.90
2019-03-11T03:52:55.096Z,99.90
2019-03-11T03:55:23.676Z,99.90
2019-03-11T03:57:52.242Z,99.90
2019-03-11T04:00:20.954Z,99.90
2019-03-11T04:02:49.612Z,99.90
2019-03-11T04:05:18.319Z,99.90
2019-03-11T04:07:46.895Z,99.90
2019-03-11T04:10:17.215Z,99.90
2019-03-11T04:12:46.114Z,99.90
2019-03-11T04:15:15.400Z,99.90
2019-03-11T04:17:44.139Z,99.90
2019-03-11T04:20:18.069Z,99.90
2019-03-11T04:22:46.777Z,99.90
2019-03-11T04:25:15.655Z,99.90
2019-03-11T04:27:44.491Z,99.90
2019-03-11T04:30:24.005Z,99.90
2019-03-11T04:32:52.591Z,99.90
2019-03-11T04:35:21.298Z,99.90
2019-03-11T04:37:49.950Z,99.90
2019-03-11T04:40:18.656Z,99.90
2019-03-11T04:42:47.370Z,99.90
2019-03-11T04:45:16.880Z,99.90
2019-03-11T04:47:45.693Z,99.90
2019-03-11T04:50:16.470Z,99.90
2019-03-11T04:52:45.678Z,99.90
2019-03-11T04:55:15.282Z,99.90
2019-03-11T04:57:54.410Z,99.90
2019-03-11T05:00:33.642Z,99.90
2019-03-11T05:03:02.310Z,99.90
2019-03-11T05:05:30.902Z,99.90
2019-03-11T05:07:59.472Z,99.90
2019-03-11T05:10:28.118Z,99.90
2019-03-11T05:12:56.766Z,99.90
2019-03-11T05:15:25.415Z,99.90
2019-03-11T05:17:54.049Z,99.90
2019-03-11T05:20:23.503Z,99.90
2019-03-11T05:22:54.581Z,99.90
2019-03-11T05:25:22.282Z,99.90
2019-03-11T05:27:50.858Z,99.90
2019-03-11T05:30:20.269Z,99.90
2019-03-11T05:32:49.074Z,99.90
2019-03-11T05:35:17.712Z,99.90
2019-03-11T05:37:46.294Z,99.90
2019-03-11T05:40:17.066Z,99.90
2019-03-11T05:42:45.898Z,99.90
2019-03-11T05:45:16.603Z,99.90
2019-03-11T05:47:45.251Z,99.90
2019-03-11T05:50:15.937Z,99.90
2019-03-11T05:52:45.029Z,99.90
2019-03-11T05:55:14.023Z,99.90
2019-03-11T05:57:42.726Z,99.90
2019-03-11T06:00:15.217Z,99.90
2019-03-11T06:02:43.800Z,99.90
2019-03-11T06:05:13.026Z,99.90
2019-03-11T06:07:42.559Z,99.90
2019-03-11T06:10:13.181Z,99.90
2019-03-11T06:12:41.894Z,99.90
2019-03-11T06:15:12.905Z,99.90
2019-03-11T06:17:41.618Z,99.90
2019-03-11T06:20:32.750Z,99.90
2019-03-11T06:23:02.972Z,99.90
2019-03-11T06:25:31.586Z,99.90
2019-03-11T06:28:00.294Z,99.90
2019-03-11T06:30:29.129Z,99.90
2019-03-11T06:32:57.698Z,99.90
2019-03-11T06:35:26.365Z,99.90
2019-03-11T06:37:54.915Z,99.90
2019-03-11T06:40:23.522Z,99.90
2019-03-11T06:42:52.216Z,99.90
2019-03-11T06:45:20.799Z,99.90
2019-03-11T06:47:49.434Z,99.90
2019-03-11T06:50:18.110Z,99.90
2019-03-11T06:52:46.677Z,98.40
2019-03-11T06:55:15.357Z,97.60
2019-03-11T06:57:43.988Z,97.00
2019-03-11T07:00:18.326Z,96.10
2019-03-11T07:02:47.042Z,95.40
2019-03-11T07:05:20.353Z,94.50
2019-03-11T07:07:45.994Z,91.70
2019-03-11T07:10:15.903Z,83.00
2019-03-11T07:12:44.727Z,72.00
2019-03-11T07:15:15.998Z,67.70
2019-03-11T07:17:45.246Z,59.70
2019-03-11T07:20:16.318Z,57.30
2019-03-11T07:22:44.978Z,53.30
2019-03-11T07:25:13.697Z,48.10
2019-03-11T07:27:42.467Z,46.90
2019-03-11T07:30:13.846Z,46.00
2019-03-11T07:32:42.482Z,48.70
2019-03-11T07:35:11.302Z,50.80
2019-03-11T07:37:39.932Z,50.50
2019-03-11T07:40:10.744Z,49.10
2019-03-11T07:42:39.558Z,45.70
2019-03-11T07:45:10.514Z,41.00
2019-03-11T07:47:39.091Z,38.20
2019-03-11T07:50:09.298Z,39.90
2019-03-11T07:52:38.015Z,42.80
2019-03-11T07:55:08.714Z,44.50
2019-03-11T07:57:37.360Z,45.10
2019-03-11T08:00:14.555Z,42.80
2019-03-11T08:02:43.278Z,41.30
2019-03-11T08:05:12.066Z,39.40
2019-03-11T08:07:40.721Z,38.60
2019-03-11T08:10:17.870Z,40.10
2019-03-11T08:12:46.532Z,39.80
2019-03-11T08:15:16.051Z,37.30
2019-03-11T08:17:44.690Z,36.90
2019-03-11T08:20:14.709Z,35.00
2019-03-11T08:22:43.281Z,33.80
2019-03-11T08:25:13.098Z,33.90
2019-03-11T08:27:41.810Z,33.00
2019-03-11T08:30:18.897Z,30.40
2019-03-11T08:32:47.620Z,30.00
2019-03-11T08:35:16.530Z,31.10
2019-03-11T08:37:45.173Z,32.00
2019-03-11T08:40:15.297Z,33.30
2019-03-11T08:42:43.883Z,32.90
2019-03-11T08:45:14.558Z,31.10
2019-03-11T08:47:43.368Z,30.80
2019-03-11T08:50:15.939Z,32.30
2019-03-11T08:52:44.582Z,32.60
2019-03-11T08:55:13.693Z,31.50
2019-03-11T08:57:42.419Z,32.10
2019-03-11T09:00:21.138Z,31.20
2019-03-11T09:02:49.859Z,32.30
2019-03-11T09:05:20.366Z,31.30
2019-03-11T09:07:48.942Z,29.80
2019-03-11T09:10:18.465Z,30.00
2019-03-11T09:12:47.353Z,31.30
2019-03-11T09:15:17.914Z,32.10
2019-03-11T09:17:46.482Z,30.90
2019-03-11T09:20:16.210Z,31.90
2019-03-11T09:22:44.925Z,29.80
2019-03-11T09:25:27.812Z,29.50
2019-03-11T09:27:56.450Z,29.80
2019-03-11T09:30:25.358Z,31.10
2019-03-11T09:32:53.942Z,31.80
2019-03-11T09:35:22.586Z,31.80
2019-03-11T09:37:51.378Z,32.20
2019-03-11T09:40:21.659Z,33.70
2019-03-11T09:42:50.245Z,33.70
2019-03-11T09:45:19.741Z,33.40
2019-03-11T09:47:48.803Z,33.30
2019-03-11T09:50:18.540Z,35.70
2019-03-11T09:52:47.122Z,36.50
2019-03-11T09:55:20.495Z,37.90
2019-03-11T09:57:49.131Z,39.30
2019-03-11T10:00:22.779Z,42.70
2019-03-11T10:02:53.337Z,45.00
2019-03-11T10:05:22.023Z,45.10
2019-03-11T10:07:50.915Z,48.00
2019-03-11T10:10:24.803Z,47.70
2019-03-11T10:12:53.437Z,45.00
2019-03-11T10:15:23.140Z,48.80
2019-03-11T10:17:51.932Z,49.40
2019-03-11T10:20:21.029Z,52.20
2019-03-11T10:22:49.742Z,54.20
2019-03-11T10:25:20.410Z,53.10
2019-03-11T10:27:49.222Z,52.10
2019-03-11T10:30:22.482Z,52.90
2019-03-11T10:32:51.125Z,51.10
2019-03-11T10:35:31.252Z,54.60
2019-03-11T10:37:50.642Z,53.50
2019-03-11T10:40:26.286Z,52.70
2019-03-11T10:42:55.034Z,53.30
2019-03-11T10:45:30.992Z,51.50
2019-03-11T10:47:54.226Z,50.80
2019-03-11T10:50:22.867Z,52.60
2019-03-11T10:52:51.438Z,55.40
2019-03-11T10:55:24.412Z,52.40
2019-03-11T10:57:53.114Z,58.70
2019-03-11T11:00:27.723Z,55.50
2019-03-11T11:02:56.427Z,52.60
2019-03-11T11:05:25.082Z,51.70
2019-03-11T11:07:53.890Z,50.40
2019-03-11T11:10:22.598Z,55.20
2019-03-11T11:12:51.810Z,55.60
2019-03-11T11:15:22.216Z,54.20
2019-03-11T11:17:50.898Z,55.50
2019-03-11T11:20:20.994Z,54.10
2019-03-11T11:22:50.307Z,50.10
2019-03-11T11:25:22.801Z,49.90
2019-03-11T11:27:51.618Z,52.50
2019-03-11T11:30:25.217Z,52.10
2019-03-11T11:32:54.094Z,50.70
2019-03-11T11:35:22.729Z,51.40
2019-03-11T11:37:51.532Z,53.00
2019-03-11T11:40:25.513Z,48.80
2019-03-11T11:42:54.351Z,51.10
2019-03-11T11:45:25.262Z,50.30
2019-03-11T11:47:54.034Z,49.50
2019-03-11T11:50:26.426Z,47.50
2019-03-11T11:52:55.329Z,47.80
2019-03-11T11:55:24.174Z,46.30
2019-03-11T11:57:53.077Z,45.50
2019-03-11T12:00:26.012Z,45.20
2019-03-11T12:02:55.038Z,45.10
2019-03-11T12:05:23.940Z,45.00
2019-03-11T12:07:52.959Z,43.00
2019-03-11T12:10:40.982Z,44.90
2019-03-11T12:13:09.554Z,43.80
2019-03-11T12:15:38.186Z,45.10
2019-03-11T12:18:06.939Z,42.20
2019-03-11T12:20:35.572Z,42.00
2019-03-11T12:23:04.499Z,40.80
2019-03-11T12:25:33.134Z,41.30
2019-03-11T12:28:02.066Z,41.80
2019-03-11T12:30:31.986Z,42.50
2019-03-11T12:33:00.614Z,44.70
2019-03-11T12:35:29.329Z,44.90
2019-03-11T12:37:58.128Z,43.30
2019-03-11T12:40:26.842Z,45.10
2019-03-11T12:42:55.483Z,46.60
2019-03-11T12:45:26.147Z,45.60
2019-03-11T12:47:54.953Z,43.30
2019-03-11T12:50:25.075Z,41.50
2019-03-11T12:52:53.659Z,41.60
2019-03-11T12:55:22.309Z,45.60
2019-03-11T12:57:50.944Z,45.60
2019-03-11T13:00:24.832Z,44.50
2019-03-11T13:02:53.574Z,45.50
2019-03-11T13:05:22.371Z,45.70
2019-03-11T13:07:50.969Z,47.20
2019-03-11T13:10:31.134Z,46.30
2019-03-11T13:12:59.866Z,45.50
2019-03-11T13:15:28.650Z,45.00
2019-03-11T13:17:58.921Z,45.50
2019-03-11T13:20:38.791Z,47.90
2019-03-11T13:23:07.350Z,47.10
2019-03-11T13:25:36.011Z,48.50
2019-03-11T13:28:04.763Z,47.30
2019-03-11T13:30:33.338Z,46.80
2019-03-11T13:33:01.902Z,47.70
2019-03-11T13:35:30.482Z,48.60
2019-03-11T13:37:59.123Z,46.60
2019-03-11T13:40:27.702Z,46.10
2019-03-11T13:42:56.275Z,45.20
2019-03-11T13:45:24.985Z,43.90
2019-03-11T13:47:53.553Z,43.50
2019-03-11T13:50:22.186Z,44.50
2019-03-11T13:52:50.833Z,47.90
2019-03-11T13:55:19.554Z,50.50
2019-03-11T13:57:48.484Z,46.90
2019-03-11T14:00:19.149Z,50.00
2019-03-11T14:02:48.370Z,51.60
2019-03-11T14:05:17.175Z,51.60
2019-03-11T14:07:45.818Z,52.20
2019-03-11T14:10:15.630Z,53.70
2019-03-11T14:12:44.474Z,55.60
2019-03-11T14:15:14.986Z,53.80
2019-03-11T14:17:43.618Z,54.20
2019-03-11T14:20:13.634Z,55.60
2019-03-11T14:22:42.336Z,57.80
2019-03-11T14:25:12.005Z,61.60
2019-03-11T14:27:40.661Z,66.40
2019-03-11T14:30:15.267Z,69.50
2019-03-11T14:32:43.830Z,67.60
2019-03-11T14:35:13.334Z,70.20
2019-03-11T14:37:42.043Z,67.40
2019-03-11T14:40:15.456Z,70.60
2019-03-11T14:42:44.167Z,77.90
2019-03-11T14:45:23.655Z,81.40
2019-03-11T14:47:52.293Z,77.30
2019-03-11T14:50:20.930Z,76.60
2019-03-11T14:52:49.619Z,77.70
2019-03-11T14:55:18.426Z,81.80
2019-03-11T14:57:47.002Z,83.10
2019-03-11T15:00:22.927Z,85.30
2019-03-11T15:02:51.759Z,86.60
2019-03-11T15:05:21.171Z,88.60
2019-03-11T15:07:49.980Z,90.40
2019-03-11T15:10:19.658Z,86.80
2019-03-11T15:12:48.875Z,83.40
2019-03-11T15:15:22.271Z,84.60
2019-03-11T15:17:50.904Z,85.50
2019-03-11T15:20:19.673Z,86.80
2019-03-11T15:22:48.686Z,88.40
2019-03-11T15:25:18.665Z,86.00
2019-03-11T15:27:47.598Z,82.10
2019-03-11T15:30:23.252Z,82.40
2019-03-11T15:32:51.829Z,83.20
2019-03-11T15:35:20.757Z,78.90
2019-03-11T15:37:49.455Z,74.20
2019-03-11T15:40:19.546Z,74.70
2019-03-11T15:42:48.270Z,64.10
2019-03-11T15:45:18.277Z,60.50
2019-03-11T15:47:46.968Z,63.60
2019-03-11T15:50:24.377Z,64.10
2019-03-11T15:52:53.010Z,68.10
2019-03-11T15:55:21.717Z,71.50
2019-03-11T15:57:50.438Z,72.30
2019-03-11T16:00:20.852Z,76.20
2019-03-11T16:02:49.606Z,77.90
2019-03-11T16:05:19.849Z,82.30
2019-03-11T16:07:49.022Z,83.40
2019-03-11T16:10:18.154Z,87.40
2019-03-11T16:12:47.072Z,88.00
2019-03-11T16:15:16.775Z,88.70
2019-03-11T16:17:45.816Z,90.90
2019-03-11T16:20:24.760Z,91.30
2019-03-11T16:22:53.462Z,91.90
2019-03-11T16:25:22.454Z,93.30
2019-03-11T16:27:51.099Z,94.00
2019-03-11T16:30:27.726Z,94.90
2019-03-11T16:32:59.843Z,95.00
2019-03-11T16:35:28.097Z,95.80
2019-03-11T16:37:56.736Z,96.50
2019-03-11T16:40:25.447Z,96.70
2019-03-11T16:42:54.015Z,97.00
2019-03-11T16:45:22.830Z,97.30
2019-03-11T16:47:51.478Z,97.40
2019-03-11T16:50:25.935Z,97.60
2019-03-11T16:52:54.598Z,97.50
2019-03-11T16:55:25.759Z,98.10
2019-03-11T16:57:54.330Z,98.50
2019-03-11T17:00:31.094Z,98.50
2019-03-11T17:02:59.673Z,98.70
2019-03-11T17:05:28.587Z,99.20
2019-03-11T17:07:57.351Z,99.20
2019-03-11T17:10:26.061Z,99.60
2019-03-11T17:12:54.710Z,99.70
2019-03-11T17:15:23.518Z,99.90
2019-03-11T17:17:52.242Z,99.90
2019-03-11T17:20:20.979Z,99.90
2019-03-11T17:22:49.570Z,99.90
2019-03-11T17:25:18.218Z,99.90
2019-03-11T17:27:46.950Z,99.90
2019-03-11T17:30:26.950Z,99.90
2019-03-11T17:32:55.693Z,99.90
2019-03-11T17:35:24.402Z,99.90
2019-03-11T17:37:52.966Z,99.90
2019-03-11T17:40:22.586Z,99.90
2019-03-11T17:42:51.443Z,99.90
2019-03-11T17:45:20.222Z,99.80
2019-03-11T17:47:49.170Z,99.80
2019-03-11T17:50:21.883Z,99.60
2019-03-11T17:52:50.598Z,99.30
2019-03-11T17:55:20.298Z,99.60
2019-03-11T17:57:49.018Z,99.40
2019-03-11T18:00:21.567Z,99.10
2019-03-11T18:02:50.382Z,98.40
2019-03-11T18:05:19.318Z,98.20
2019-03-11T18:07:48.032Z,98.20
2019-03-11T18:10:36.006Z,97.90
2019-03-11T18:13:04.830Z,98.00
2019-03-11T18:15:33.464Z,97.80
2019-03-11T18:18:02.304Z,97.30
2019-03-11T18:20:30.886Z,97.00
2019-03-11T18:22:59.590Z,96.80
2019-03-11T18:25:28.314Z,96.40
2019-03-11T18:27:56.983Z,96.20
2019-03-11T18:30:29.700Z,95.90
2019-03-11T18:32:58.451Z,96.10
2019-03-11T18:35:27.192Z,96.40
2019-03-11T18:38:04.041Z,96.70
2019-03-11T18:40:26.402Z,96.50
2019-03-11T18:42:54.967Z,96.40
2019-03-11T18:45:23.626Z,96.70
2019-03-11T18:47:52.271Z,96.80
2019-03-11T18:50:23.354Z,96.80
2019-03-11T18:52:52.095Z,97.30
2019-03-11T18:55:20.862Z,96.70
2019-03-11T18:57:49.669Z,96.50
2019-03-11T19:00:22.416Z,96.30
2019-03-11T19:02:51.186Z,96.40
2019-03-11T19:05:21.393Z,96.60
2019-03-11T19:07:50.027Z,96.70
2019-03-11T19:10:18.839Z,96.30
2019-03-11T19:12:47.579Z,96.40
2019-03-11T19:15:24.720Z,96.40
2019-03-11T19:17:53.273Z,96.60
2019-03-11T19:20:23.445Z,97.10
2019-03-11T19:22:52.262Z,97.10
2019-03-11T19:25:20.946Z,96.90
2019-03-11T19:27:49.609Z,97.20
2019-03-11T19:30:20.814Z,97.00
2019-03-11T19:32:49.484Z,97.60
2019-03-11T19:35:19.132Z,97.30
2019-03-11T19:37:47.905Z,97.50
2019-03-11T19:40:19.313Z,97.10
2019-03-11T19:42:48.010Z,97.00
2019-03-11T19:45:17.304Z,97.20
2019-03-11T19:47:45.889Z,97.40
2019-03-11T19:50:18.782Z,97.80
2019-03-11T19:52:57.969Z,97.60
2019-03-11T19:55:18.023Z,97.60
2019-03-11T19:57:47.479Z,97.50
2019-03-11T20:00:25.601Z,97.60
2019-03-11T20:02:54.583Z,97.80
2019-03-11T20:05:28.266Z,98.20
2019-03-11T20:07:56.943Z,98.20
2019-03-11T20:10:25.956Z,98.10
2019-03-11T20:12:54.558Z,98.20
2019-03-11T20:15:23.368Z,98.40
2019-03-11T20:17:51.976Z,98.60
2019-03-11T20:20:21.268Z,98.40
2019-03-11T20:22:50.891Z,98.60
2019-03-11T20:25:36.640Z,98.60
2019-03-11T20:28:05.517Z,98.80
2019-03-11T20:30:34.377Z,99.00
2019-03-11T20:33:04.170Z,99.10
2019-03-11T20:35:33.057Z,99.20
2019-03-11T20:38:01.691Z,99.10
2019-03-11T20:40:30.302Z,99.30
2019-03-11T20:42:59.237Z,99.40
2019-03-11T20:45:27.747Z,99.70
2019-03-11T20:47:56.398Z,99.80
2019-03-11T20:50:25.147Z,99.80
2019-03-11T20:52:53.727Z,99.70
2019-03-11T20:55:22.385Z,99.70
2019-03-11T20:57:51.048Z,99.80
2019-03-11T21:00:23.342Z,99.60
2019-03-11T21:02:52.169Z,99.80
2019-03-11T21:05:24.023Z,99.90
2019-03-11T21:07:52.585Z,99.90
2019-03-11T21:10:21.340Z,99.90
2019-03-11T21:12:50.195Z,99.90
2019-03-11T21:15:19.087Z,99.90
2019-03-11T21:17:47.727Z,99.90
2019-03-11T21:20:19.055Z,99.90
2019-03-11T21:22:47.698Z,99.90
2019-03-11T21:25:18.246Z,99.90
2019-03-11T21:27:46.854Z,99.90
2019-03-11T21:30:23.522Z,99.90
2019-03-11T21:32:52.444Z,99.90
2019-03-11T21:35:21.211Z,99.90
2019-03-11T21:37:49.994Z,99.90
2019-03-11T21:40:20.025Z,99.90
2019-03-11T21:42:48.776Z,99.90
2019-03-11T21:45:18.305Z,99.90
2019-03-11T21:47:47.356Z,99.90
2019-03-11T21:50:23.536Z,99.90
2019-03-11T21:52:52.137Z,99.90
2019-03-11T21:55:20.763Z,99.90
2019-03-11T21:57:49.699Z,99.90
2019-03-11T22:00:33.642Z,99.90
2019-03-11T22:02:55.135Z,99.90
2019-03-11T22:05:23.842Z,99.90
2019-03-11T22:07:52.513Z,99.90
2019-03-11T22:10:21.518Z,99.90
2019-03-11T22:12:50.268Z,99.90
2019-03-11T22:15:26.152Z,99.90
2019-03-11T22:17:54.802Z,99.90
2019-03-11T22:20:23.454Z,99.90
2019-03-11T22:22:52.322Z,99.90
2019-03-11T22:25:22.412Z,99.90
2019-03-11T22:27:50.989Z,99.90
2019-03-11T22:30:23.193Z,99.90
2019-03-11T22:32:52.201Z,99.90
2019-03-11T22:35:20.918Z,99.90
2019-03-11T22:37:49.626Z,99.90
2019-03-11T22:40:19.340Z,99.90
2019-03-11T22:42:48.090Z,99.90
2019-03-11T22:45:22.133Z,99.90
2019-03-11T22:47:51.341Z,99.90
2019-03-11T22:50:20.538Z,99.90
2019-03-11T22:52:49.294Z,99.90
2019-03-11T22:55:19.908Z,99.90
2019-03-11T22:57:48.691Z,99.90
2019-03-11T23:00:55.014Z,99.90
2019-03-11T23:03:24.527Z,99.90
2019-03-11T23:05:57.997Z,99.90
2019-03-11T23:08:23.897Z,99.90
2019-03-11T23:10:52.607Z,99.90
2019-03-11T23:13:21.183Z,99.90
2019-03-11T23:15:49.820Z,99.90
2019-03-11T23:18:18.479Z,99.90
2019-03-11T23:20:47.054Z,99.90
2019-03-11T23:23:15.618Z,99.90
2019-03-11T23:25:44.198Z,99.90
2019-03-11T23:28:12.927Z,99.90
2019-03-11T23:30:41.677Z,99.90
2019-03-11T23:33:10.322Z,99.90
2019-03-11T23:35:38.898Z,99.90
2019-03-11T23:38:07.468Z,99.90
2019-03-11T23:40:36.145Z,99.90
2019-03-11T23:43:04.834Z,99.90
2019-03-11T23:45:33.470Z,99.90
2019-03-11T23:48:02.056Z,99.90
2019-03-11T23:50:30.622Z,99.90
2019-03-11T23:52:59.202Z,99.90
2019-03-11T23:55:27.784Z,99.90
2019-03-11T23:57:56.346Z,99.90
